sensor_id;sensor_type;location;lat;lon;timestamp;temperature;humidity
83770;DHT22;73763;48.936;9.300;2024-01-16T00:01:24;-0.70;90.40
83770;DHT22;73763;48.936;9.300;2024-01-16T00:03:49;-0.80;90.50
83770;DHT22;73763;48.936;9.300;2024-01-16T00:06:15;-0.90;90.70
83770;DHT22;73763;48.936;9.300;2024-01-16T00:08:41;-0.90;90.90
83770;DHT22;73763;48.936;9.300;2024-01-16T00:11:06;-1.00;90.90
83770;DHT22;73763;48.936;9.300;2024-01-16T00:13:32;-1.10;90.90
83770;DHT22;73763;48.936;9.300;2024-01-16T00:15:58;-1.10;91.10
83770;DHT22;73763;48.936;9.300;2024-01-16T00:18:23;-1.20;91.00
83770;DHT22;73763;48.936;9.300;2024-01-16T00:20:49;-1.20;91.00
83770;DHT22;73763;48.936;9.300;2024-01-16T00:23:15;-1.20;91.00
83770;DHT22;73763;48.936;9.300;2024-01-16T00:25:40;-1.20;91.00
83770;DHT22;73763;48.936;9.300;2024-01-16T00:28:06;-1.20;91.10
83770;DHT22;73763;48.936;9.300;2024-01-16T00:30:31;-1.30;91.20
83770;DHT22;73763;48.936;9.300;2024-01-16T00:32:57;-1.30;91.30
83770;DHT22;73763;48.936;9.300;2024-01-16T00:35:22;-1.30;91.30
83770;DHT22;73763;48.936;9.300;2024-01-16T00:37:48;-1.30;91.50
83770;DHT22;73763;48.936;9.300;2024-01-16T00:40:14;-1.30;91.60
83770;DHT22;73763;48.936;9.300;2024-01-16T00:42:39;-1.30;91.70
83770;DHT22;73763;48.936;9.300;2024-01-16T00:45:05;-1.30;91.60
83770;DHT22;73763;48.936;9.300;2024-01-16T00:47:30;-1.30;91.50
83770;DHT22;73763;48.936;9.300;2024-01-16T00:49:56;-1.20;91.50
83770;DHT22;73763;48.936;9.300;2024-01-16T00:52:21;-1.20;91.40
83770;DHT22;73763;48.936;9.300;2024-01-16T00:54:47;-1.20;91.40
83770;DHT22;73763;48.936;9.300;2024-01-16T00:57:12;-1.20;91.50
83770;DHT22;73763;48.936;9.300;2024-01-16T00:59:38;-1.10;91.30
83770;DHT22;73763;48.936;9.300;2024-01-16T01:02:03;-1.20;91.30
83770;DHT22;73763;48.936;9.300;2024-01-16T01:04:29;-1.10;91.30
83770;DHT22;73763;48.936;9.300;2024-01-16T01:06:55;-1.20;91.30
83770;DHT22;73763;48.936;9.300;2024-01-16T01:09:20;-1.10;91.20
83770;DHT22;73763;48.936;9.300;2024-01-16T01:11:46;-1.10;91.30
83770;DHT22;73763;48.936;9.300;2024-01-16T01:14:12;-1.10;91.30
83770;DHT22;73763;48.936;9.300;2024-01-16T01:16:37;-1.30;91.20
83770;DHT22;73763;48.936;9.300;2024-01-16T01:19:03;-1.40;91.30
83770;DHT22;73763;48.936;9.300;2024-01-16T01:21:28;-1.50;91.40
83770;DHT22;73763;48.936;9.300;2024-01-16T01:23:54;-1.50;91.40
83770;DHT22;73763;48.936;9.300;2024-01-16T01:26:20;-1.60;91.50
83770;DHT22;73763;48.936;9.300;2024-01-16T01:28:45;-1.70;91.50
83770;DHT22;73763;48.936;9.300;2024-01-16T01:31:11;-1.70;91.70
83770;DHT22;73763;48.936;9.300;2024-01-16T01:33:37;-1.90;91.80
83770;DHT22;73763;48.936;9.300;2024-01-16T01:36:02;-1.90;92.00
83770;DHT22;73763;48.936;9.300;2024-01-16T01:38:28;-2.00;92.20
83770;DHT22;73763;48.936;9.300;2024-01-16T01:40:53;-2.00;92.70
83770;DHT22;73763;48.936;9.300;2024-01-16T01:43:20;-2.00;92.40
83770;DHT22;73763;48.936;9.300;2024-01-16T01:48:35;-2.00;92.30
83770;DHT22;73763;48.936;9.300;2024-01-16T01:51:01;-2.00;92.30
83770;DHT22;73763;48.936;9.300;2024-01-16T01:53:29;-2.00;92.50
83770;DHT22;73763;48.936;9.300;2024-01-16T01:55:55;-1.90;92.60
83770;DHT22;73763;48.936;9.300;2024-01-16T01:58:21;-1.70;92.60
83770;DHT22;73763;48.936;9.300;2024-01-16T02:00:47;-1.70;92.70
83770;DHT22;73763;48.936;9.300;2024-01-16T02:03:13;-1.60;92.70
83770;DHT22;73763;48.936;9.300;2024-01-16T02:05:39;-1.60;92.60
83770;DHT22;73763;48.936;9.300;2024-01-16T02:08:05;-1.50;92.70
83770;DHT22;73763;48.936;9.300;2024-01-16T02:10:31;-1.60;92.70
83770;DHT22;73763;48.936;9.300;2024-01-16T02:12:57;-1.60;92.70
83770;DHT22;73763;48.936;9.300;2024-01-16T02:15:23;-1.50;93.10
83770;DHT22;73763;48.936;9.300;2024-01-16T02:17:49;-1.50;92.70
83770;DHT22;73763;48.936;9.300;2024-01-16T02:20:14;-1.60;92.60
83770;DHT22;73763;48.936;9.300;2024-01-16T02:22:44;-1.60;92.70
83770;DHT22;73763;48.936;9.300;2024-01-16T02:25:10;-1.60;92.70
83770;DHT22;73763;48.936;9.300;2024-01-16T02:27:36;-1.60;92.90
83770;DHT22;73763;48.936;9.300;2024-01-16T02:30:02;-1.60;92.50
83770;DHT22;73763;48.936;9.300;2024-01-16T02:32:27;-1.70;92.50
83770;DHT22;73763;48.936;9.300;2024-01-16T02:34:53;-1.70;92.50
83770;DHT22;73763;48.936;9.300;2024-01-16T02:37:18;-1.70;92.40
83770;DHT22;73763;48.936;9.300;2024-01-16T02:39:44;-1.60;92.30
83770;DHT22;73763;48.936;9.300;2024-01-16T02:42:09;-1.60;92.30
83770;DHT22;73763;48.936;9.300;2024-01-16T02:44:35;-1.60;92.30
83770;DHT22;73763;48.936;9.300;2024-01-16T02:47:00;-1.60;92.40
83770;DHT22;73763;48.936;9.300;2024-01-16T02:49:26;-1.70;92.40
83770;DHT22;73763;48.936;9.300;2024-01-16T02:51:51;-1.80;92.70
83770;DHT22;73763;48.936;9.300;2024-01-16T02:54:17;-1.90;93.10
83770;DHT22;73763;48.936;9.300;2024-01-16T02:56:43;-2.10;93.30
83770;DHT22;73763;48.936;9.300;2024-01-16T02:59:09;-2.20;93.60
83770;DHT22;73763;48.936;9.300;2024-01-16T03:01:35;-2.20;93.70
83770;DHT22;73763;48.936;9.300;2024-01-16T03:04:00;-2.20;93.70
83770;DHT22;73763;48.936;9.300;2024-01-16T03:06:26;-2.10;93.60
83770;DHT22;73763;48.936;9.300;2024-01-16T03:08:51;-2.10;93.40
83770;DHT22;73763;48.936;9.300;2024-01-16T03:11:17;-2.10;93.30
83770;DHT22;73763;48.936;9.300;2024-01-16T03:13:43;-2.00;93.20
83770;DHT22;73763;48.936;9.300;2024-01-16T03:16:12;-2.00;93.20
83770;DHT22;73763;48.936;9.300;2024-01-16T03:18:38;-2.00;93.10
83770;DHT22;73763;48.936;9.300;2024-01-16T03:21:05;-2.00;93.00
83770;DHT22;73763;48.936;9.300;2024-01-16T03:23:31;-2.00;92.90
83770;DHT22;73763;48.936;9.300;2024-01-16T03:25:56;-2.00;92.80
83770;DHT22;73763;48.936;9.300;2024-01-16T03:28:22;-1.90;92.70
83770;DHT22;73763;48.936;9.300;2024-01-16T03:30:48;-2.00;92.60
83770;DHT22;73763;48.936;9.300;2024-01-16T03:33:13;-2.10;92.40
83770;DHT22;73763;48.936;9.300;2024-01-16T03:35:39;-2.30;92.10
83770;DHT22;73763;48.936;9.300;2024-01-16T03:38:04;-2.50;92.90
83770;DHT22;73763;48.936;9.300;2024-01-16T03:40:30;-2.60;93.00
83770;DHT22;73763;48.936;9.300;2024-01-16T03:42:55;-2.70;93.30
83770;DHT22;73763;48.936;9.300;2024-01-16T03:45:21;-2.70;93.70
83770;DHT22;73763;48.936;9.300;2024-01-16T03:47:46;-2.80;93.90
83770;DHT22;73763;48.936;9.300;2024-01-16T03:50:12;-2.70;94.10
83770;DHT22;73763;48.936;9.300;2024-01-16T03:52:37;-2.70;94.00
83770;DHT22;73763;48.936;9.300;2024-01-16T03:55:03;-2.70;94.00
83770;DHT22;73763;48.936;9.300;2024-01-16T03:57:28;-2.70;94.10
83770;DHT22;73763;48.936;9.300;2024-01-16T03:59:54;-2.70;94.10
83770;DHT22;73763;48.936;9.300;2024-01-16T04:02:19;-2.60;94.00
83770;DHT22;73763;48.936;9.300;2024-01-16T04:04:45;-2.60;93.80
83770;DHT22;73763;48.936;9.300;2024-01-16T04:07:10;-2.60;93.70
83770;DHT22;73763;48.936;9.300;2024-01-16T04:09:36;-2.60;93.60
83770;DHT22;73763;48.936;9.300;2024-01-16T04:12:01;-2.60;93.60
83770;DHT22;73763;48.936;9.300;2024-01-16T04:14:27;-2.60;93.60
83770;DHT22;73763;48.936;9.300;2024-01-16T04:16:52;-2.70;93.70
83770;DHT22;73763;48.936;9.300;2024-01-16T04:19:18;-2.70;93.80
83770;DHT22;73763;48.936;9.300;2024-01-16T04:21:43;-2.70;93.80
83770;DHT22;73763;48.936;9.300;2024-01-16T04:24:09;-2.80;93.90
83770;DHT22;73763;48.936;9.300;2024-01-16T04:26:36;-2.90;94.00
83770;DHT22;73763;48.936;9.300;2024-01-16T04:29:01;-2.90;94.20
83770;DHT22;73763;48.936;9.300;2024-01-16T04:31:27;-3.00;94.20
83770;DHT22;73763;48.936;9.300;2024-01-16T04:33:52;-3.00;94.30
83770;DHT22;73763;48.936;9.300;2024-01-16T04:36:18;-3.00;94.30
83770;DHT22;73763;48.936;9.300;2024-01-16T04:38:43;-3.20;94.30
83770;DHT22;73763;48.936;9.300;2024-01-16T04:41:09;-3.20;94.50
83770;DHT22;73763;48.936;9.300;2024-01-16T04:43:34;-3.30;94.70
83770;DHT22;73763;48.936;9.300;2024-01-16T04:46:00;-3.30;94.80
83770;DHT22;73763;48.936;9.300;2024-01-16T04:48:25;-3.20;94.70
83770;DHT22;73763;48.936;9.300;2024-01-16T04:50:51;-3.20;94.60
83770;DHT22;73763;48.936;9.300;2024-01-16T04:53:16;-3.30;94.60
83770;DHT22;73763;48.936;9.300;2024-01-16T04:55:42;-3.30;94.60
83770;DHT22;73763;48.936;9.300;2024-01-16T04:58:07;-3.40;94.30
83770;DHT22;73763;48.936;9.300;2024-01-16T05:00:33;-3.50;94.40
83770;DHT22;73763;48.936;9.300;2024-01-16T05:02:58;-3.70;94.70
83770;DHT22;73763;48.936;9.300;2024-01-16T05:05:24;-3.70;95.00
83770;DHT22;73763;48.936;9.300;2024-01-16T05:07:49;-3.80;95.40
83770;DHT22;73763;48.936;9.300;2024-01-16T05:10:15;-3.70;95.50
83770;DHT22;73763;48.936;9.300;2024-01-16T05:12:41;-3.70;95.30
83770;DHT22;73763;48.936;9.300;2024-01-16T05:15:07;-3.80;95.40
83770;DHT22;73763;48.936;9.300;2024-01-16T05:17:33;-3.70;95.60
83770;DHT22;73763;48.936;9.300;2024-01-16T05:19:59;-3.60;95.40
83770;DHT22;73763;48.936;9.300;2024-01-16T05:22:26;-3.50;95.10
83770;DHT22;73763;48.936;9.300;2024-01-16T05:24:51;-3.50;94.90
83770;DHT22;73763;48.936;9.300;2024-01-16T05:27:17;-3.60;94.90
83770;DHT22;73763;48.936;9.300;2024-01-16T05:29:43;-3.60;95.00
83770;DHT22;73763;48.936;9.300;2024-01-16T05:32:08;-3.60;95.10
83770;DHT22;73763;48.936;9.300;2024-01-16T05:34:34;-3.50;95.00
83770;DHT22;73763;48.936;9.300;2024-01-16T05:36:59;-3.40;94.70
83770;DHT22;73763;48.936;9.300;2024-01-16T05:39:25;-3.40;94.60
83770;DHT22;73763;48.936;9.300;2024-01-16T05:41:50;-3.50;94.60
83770;DHT22;73763;48.936;9.300;2024-01-16T05:44:16;-3.50;94.60
83770;DHT22;73763;48.936;9.300;2024-01-16T05:46:42;-3.60;94.50
83770;DHT22;73763;48.936;9.300;2024-01-16T05:49:07;-3.60;94.60
83770;DHT22;73763;48.936;9.300;2024-01-16T05:51:33;-3.50;94.60
83770;DHT22;73763;48.936;9.300;2024-01-16T05:53:59;-3.50;94.40
83770;DHT22;73763;48.936;9.300;2024-01-16T05:56:24;-3.50;94.30
83770;DHT22;73763;48.936;9.300;2024-01-16T05:58:50;-3.50;94.20
83770;DHT22;73763;48.936;9.300;2024-01-16T06:01:15;-3.60;94.10
83770;DHT22;73763;48.936;9.300;2024-01-16T06:03:41;-3.60;94.30
83770;DHT22;73763;48.936;9.300;2024-01-16T06:06:07;-3.60;94.40
83770;DHT22;73763;48.936;9.300;2024-01-16T06:08:33;-3.50;94.80
83770;DHT22;73763;48.936;9.300;2024-01-16T06:10:58;-3.50;94.40
83770;DHT22;73763;48.936;9.300;2024-01-16T06:13:24;-3.30;94.40
83770;DHT22;73763;48.936;9.300;2024-01-16T06:15:49;-3.30;94.30
83770;DHT22;73763;48.936;9.300;2024-01-16T06:18:15;-3.30;94.30
83770;DHT22;73763;48.936;9.300;2024-01-16T06:20:40;-3.20;94.10
83770;DHT22;73763;48.936;9.300;2024-01-16T06:23:06;-3.20;93.80
83770;DHT22;73763;48.936;9.300;2024-01-16T06:25:32;-3.10;93.60
83770;DHT22;73763;48.936;9.300;2024-01-16T06:27:57;-3.10;93.40
83770;DHT22;73763;48.936;9.300;2024-01-16T06:30:23;-3.00;93.40
83770;DHT22;73763;48.936;9.300;2024-01-16T06:32:48;-3.00;93.40
83770;DHT22;73763;48.936;9.300;2024-01-16T06:35:15;-3.10;93.30
83770;DHT22;73763;48.936;9.300;2024-01-16T06:37:40;-3.00;93.40
83770;DHT22;73763;48.936;9.300;2024-01-16T06:40:06;-3.00;93.40
83770;DHT22;73763;48.936;9.300;2024-01-16T06:42:32;-3.00;93.50
83770;DHT22;73763;48.936;9.300;2024-01-16T06:44:57;-2.90;93.40
83770;DHT22;73763;48.936;9.300;2024-01-16T06:47:23;-2.90;93.30
83770;DHT22;73763;48.936;9.300;2024-01-16T06:49:48;-2.80;93.50
83770;DHT22;73763;48.936;9.300;2024-01-16T06:52:14;-2.80;93.10
83770;DHT22;73763;48.936;9.300;2024-01-16T06:54:40;-2.90;93.10
83770;DHT22;73763;48.936;9.300;2024-01-16T06:57:05;-2.90;93.20
83770;DHT22;73763;48.936;9.300;2024-01-16T06:59:31;-2.90;93.20
83770;DHT22;73763;48.936;9.300;2024-01-16T07:01:56;-2.90;93.10
83770;DHT22;73763;48.936;9.300;2024-01-16T07:04:22;-2.80;93.10
83770;DHT22;73763;48.936;9.300;2024-01-16T07:06:47;-2.80;93.10
83770;DHT22;73763;48.936;9.300;2024-01-16T07:09:13;-2.70;92.90
83770;DHT22;73763;48.936;9.300;2024-01-16T07:11:39;-2.70;92.90
83770;DHT22;73763;48.936;9.300;2024-01-16T07:14:07;-2.80;92.80
83770;DHT22;73763;48.936;9.300;2024-01-16T07:16:32;-2.80;93.00
83770;DHT22;73763;48.936;9.300;2024-01-16T07:18:58;-2.90;93.00
83770;DHT22;73763;48.936;9.300;2024-01-16T07:21:23;-2.90;93.10
83770;DHT22;73763;48.936;9.300;2024-01-16T07:23:49;-2.90;93.10
83770;DHT22;73763;48.936;9.300;2024-01-16T07:26:15;-2.90;93.20
83770;DHT22;73763;48.936;9.300;2024-01-16T07:28:40;-2.80;93.20
83770;DHT22;73763;48.936;9.300;2024-01-16T07:31:06;-2.90;93.20
83770;DHT22;73763;48.936;9.300;2024-01-16T07:33:32;-2.90;93.20
83770;DHT22;73763;48.936;9.300;2024-01-16T07:35:58;-2.90;93.10
83770;DHT22;73763;48.936;9.300;2024-01-16T07:38:23;-2.90;93.00
83770;DHT22;73763;48.936;9.300;2024-01-16T07:40:49;-2.80;92.90
83770;DHT22;73763;48.936;9.300;2024-01-16T07:43:15;-2.80;92.90
83770;DHT22;73763;48.936;9.300;2024-01-16T07:45:40;-2.80;92.90
83770;DHT22;73763;48.936;9.300;2024-01-16T07:48:06;-2.80;92.80
83770;DHT22;73763;48.936;9.300;2024-01-16T07:50:31;-2.70;92.50
83770;DHT22;73763;48.936;9.300;2024-01-16T07:52:57;-2.70;92.40
83770;DHT22;73763;48.936;9.300;2024-01-16T07:55:22;-2.60;92.40
83770;DHT22;73763;48.936;9.300;2024-01-16T07:57:48;-2.60;92.10
83770;DHT22;73763;48.936;9.300;2024-01-16T08:00:13;-2.60;92.00
83770;DHT22;73763;48.936;9.300;2024-01-16T08:02:39;-2.50;91.90
83770;DHT22;73763;48.936;9.300;2024-01-16T08:05:05;-2.50;91.70
83770;DHT22;73763;48.936;9.300;2024-01-16T08:07:31;-2.40;91.50
83770;DHT22;73763;48.936;9.300;2024-01-16T08:09:56;-2.30;91.20
83770;DHT22;73763;48.936;9.300;2024-01-16T08:12:22;-2.30;91.10
83770;DHT22;73763;48.936;9.300;2024-01-16T08:14:47;-2.20;90.90
83770;DHT22;73763;48.936;9.300;2024-01-16T08:17:13;-2.20;90.60
83770;DHT22;73763;48.936;9.300;2024-01-16T08:19:38;-2.10;90.40
83770;DHT22;73763;48.936;9.300;2024-01-16T08:22:04;-2.00;90.20
83770;DHT22;73763;48.936;9.300;2024-01-16T08:24:29;-2.00;90.20
83770;DHT22;73763;48.936;9.300;2024-01-16T08:26:55;-1.90;90.00
83770;DHT22;73763;48.936;9.300;2024-01-16T08:29:20;-1.90;89.60
83770;DHT22;73763;48.936;9.300;2024-01-16T08:31:46;-1.90;89.50
83770;DHT22;73763;48.936;9.300;2024-01-16T08:34:11;-1.90;89.40
83770;DHT22;73763;48.936;9.300;2024-01-16T08:36:37;-1.80;89.70
83770;DHT22;73763;48.936;9.300;2024-01-16T08:39:03;-1.70;90.30
83770;DHT22;73763;48.936;9.300;2024-01-16T08:41:28;-1.60;89.40
83770;DHT22;73763;48.936;9.300;2024-01-16T08:43:54;-1.60;88.40
83770;DHT22;73763;48.936;9.300;2024-01-16T08:46:19;-1.50;88.00
83770;DHT22;73763;48.936;9.300;2024-01-16T08:48:45;-1.40;87.40
83770;DHT22;73763;48.936;9.300;2024-01-16T08:51:11;-1.30;87.30
83770;DHT22;73763;48.936;9.300;2024-01-16T08:53:36;-1.30;86.90
83770;DHT22;73763;48.936;9.300;2024-01-16T08:56:02;-1.20;86.90
83770;DHT22;73763;48.936;9.300;2024-01-16T08:58:27;-1.00;86.10
83770;DHT22;73763;48.936;9.300;2024-01-16T09:00:53;-0.90;85.50
83770;DHT22;73763;48.936;9.300;2024-01-16T09:03:18;-0.80;84.80
83770;DHT22;73763;48.936;9.300;2024-01-16T09:05:44;-0.70;84.40
83770;DHT22;73763;48.936;9.300;2024-01-16T09:08:09;-0.50;83.60
83770;DHT22;73763;48.936;9.300;2024-01-16T09:10:35;-0.40;82.40
83770;DHT22;73763;48.936;9.300;2024-01-16T09:13:00;-0.30;83.00
83770;DHT22;73763;48.936;9.300;2024-01-16T09:15:26;-0.10;82.00
83770;DHT22;73763;48.936;9.300;2024-01-16T09:17:51;0.00;81.10
83770;DHT22;73763;48.936;9.300;2024-01-16T09:20:17;0.10;80.60
83770;DHT22;73763;48.936;9.300;2024-01-16T09:22:43;0.20;79.70
83770;DHT22;73763;48.936;9.300;2024-01-16T09:25:09;0.20;79.70
83770;DHT22;73763;48.936;9.300;2024-01-16T09:27:34;0.30;79.10
83770;DHT22;73763;48.936;9.300;2024-01-16T09:30:00;0.60;78.60
83770;DHT22;73763;48.936;9.300;2024-01-16T09:32:25;0.90;76.70
83770;DHT22;73763;48.936;9.300;2024-01-16T09:34:51;1.10;76.60
83770;DHT22;73763;48.936;9.300;2024-01-16T09:37:16;1.30;75.10
83770;DHT22;73763;48.936;9.300;2024-01-16T09:39:42;1.40;74.10
83770;DHT22;73763;48.936;9.300;2024-01-16T09:42:07;1.50;73.40
83770;DHT22;73763;48.936;9.300;2024-01-16T09:44:33;1.40;71.70
83770;DHT22;73763;48.936;9.300;2024-01-16T09:47:01;1.40;72.30
83770;DHT22;73763;48.936;9.300;2024-01-16T09:49:27;1.50;72.20
83770;DHT22;73763;48.936;9.300;2024-01-16T09:51:54;1.70;71.80
83770;DHT22;73763;48.936;9.300;2024-01-16T09:54:20;1.80;70.30
83770;DHT22;73763;48.936;9.300;2024-01-16T09:56:48;2.10;69.50
83770;DHT22;73763;48.936;9.300;2024-01-16T09:59:17;2.40;68.30
83770;DHT22;73763;48.936;9.300;2024-01-16T10:01:42;2.60;65.80
83770;DHT22;73763;48.936;9.300;2024-01-16T10:04:08;2.90;65.10
83770;DHT22;73763;48.936;9.300;2024-01-16T10:06:34;3.40;63.60
83770;DHT22;73763;48.936;9.300;2024-01-16T10:09:03;3.90;61.60
83770;DHT22;73763;48.936;9.300;2024-01-16T10:11:29;4.00;59.80
83770;DHT22;73763;48.936;9.300;2024-01-16T10:13:55;3.80;60.10
83770;DHT22;73763;48.936;9.300;2024-01-16T10:16:21;3.60;62.70
83770;DHT22;73763;48.936;9.300;2024-01-16T10:18:46;3.50;63.50
83770;DHT22;73763;48.936;9.300;2024-01-16T10:21:21;3.60;64.80
83770;DHT22;73763;48.936;9.300;2024-01-16T10:23:47;3.80;63.40
83770;DHT22;73763;48.936;9.300;2024-01-16T10:26:13;3.90;64.10
83770;DHT22;73763;48.936;9.300;2024-01-16T10:28:40;4.20;64.60
83770;DHT22;73763;48.936;9.300;2024-01-16T10:31:12;4.30;63.50
83770;DHT22;73763;48.936;9.300;2024-01-16T10:33:38;4.60;62.50
83770;DHT22;73763;48.936;9.300;2024-01-16T10:38:33;5.00;59.40
83770;DHT22;73763;48.936;9.300;2024-01-16T10:41:08;5.20;59.40
83770;DHT22;73763;48.936;9.300;2024-01-16T10:43:34;6.00;59.10
83770;DHT22;73763;48.936;9.300;2024-01-16T10:46:18;6.80;55.40
83770;DHT22;73763;48.936;9.300;2024-01-16T10:48:45;7.30;52.50
83770;DHT22;73763;48.936;9.300;2024-01-16T10:51:14;7.50;51.10
83770;DHT22;73763;48.936;9.300;2024-01-16T10:53:42;7.70;52.50
83770;DHT22;73763;48.936;9.300;2024-01-16T10:56:10;8.60;51.50
83770;DHT22;73763;48.936;9.300;2024-01-16T10:58:40;8.60;47.70
83770;DHT22;73763;48.936;9.300;2024-01-16T11:01:14;7.60;49.40
83770;DHT22;73763;48.936;9.300;2024-01-16T11:03:50;6.60;52.10
83770;DHT22;73763;48.936;9.300;2024-01-16T11:06:17;6.20;54.50
83770;DHT22;73763;48.936;9.300;2024-01-16T11:08:45;6.20;54.50
83770;DHT22;73763;48.936;9.300;2024-01-16T11:11:12;7.00;54.10
83770;DHT22;73763;48.936;9.300;2024-01-16T11:13:38;8.80;50.60
83770;DHT22;73763;48.936;9.300;2024-01-16T11:16:05;11.20;46.70
83770;DHT22;73763;48.936;9.300;2024-01-16T11:18:31;13.70;41.00
83770;DHT22;73763;48.936;9.300;2024-01-16T11:20:58;15.60;37.00
83770;DHT22;73763;48.936;9.300;2024-01-16T11:23:24;16.40;34.00
83770;DHT22;73763;48.936;9.300;2024-01-16T11:25:49;17.00;33.20
83770;DHT22;73763;48.936;9.300;2024-01-16T11:28:15;17.80;31.80
83770;DHT22;73763;48.936;9.300;2024-01-16T11:30:41;18.40;30.60
83770;DHT22;73763;48.936;9.300;2024-01-16T11:35:58;20.40;28.30
83770;DHT22;73763;48.936;9.300;2024-01-16T11:38:25;20.50;27.60
83770;DHT22;73763;48.936;9.300;2024-01-16T11:40:50;20.30;27.00
83770;DHT22;73763;48.936;9.300;2024-01-16T11:43:36;19.10;27.70
83770;DHT22;73763;48.936;9.300;2024-01-16T11:46:03;19.10;28.00
83770;DHT22;73763;48.936;9.300;2024-01-16T11:48:29;18.90;28.70
83770;DHT22;73763;48.936;9.300;2024-01-16T11:50:55;18.30;27.90
83770;DHT22;73763;48.936;9.300;2024-01-16T11:53:33;18.00;28.20
83770;DHT22;73763;48.936;9.300;2024-01-16T12:01:21;15.60;30.30
83770;DHT22;73763;48.936;9.300;2024-01-16T12:04:10;15.00;32.80
83770;DHT22;73763;48.936;9.300;2024-01-16T12:06:36;15.10;32.90
83770;DHT22;73763;48.936;9.300;2024-01-16T12:09:15;14.70;33.00
83770;DHT22;73763;48.936;9.300;2024-01-16T12:11:41;14.10;33.90
83770;DHT22;73763;48.936;9.300;2024-01-16T12:14:06;14.00;34.60
83770;DHT22;73763;48.936;9.300;2024-01-16T12:16:32;14.30;34.90
83770;DHT22;73763;48.936;9.300;2024-01-16T12:19:07;13.80;35.00
83770;DHT22;73763;48.936;9.300;2024-01-16T12:21:46;13.70;34.40
83770;DHT22;73763;48.936;9.300;2024-01-16T12:24:12;13.20;35.70
83770;DHT22;73763;48.936;9.300;2024-01-16T12:26:38;13.70;34.30
83770;DHT22;73763;48.936;9.300;2024-01-16T12:29:04;14.30;34.20
83770;DHT22;73763;48.936;9.300;2024-01-16T12:31:29;15.70;32.30
83770;DHT22;73763;48.936;9.300;2024-01-16T12:34:08;16.50;31.70
83770;DHT22;73763;48.936;9.300;2024-01-16T12:36:34;16.80;30.10
83770;DHT22;73763;48.936;9.300;2024-01-16T12:39:00;16.30;29.70
83770;DHT22;73763;48.936;9.300;2024-01-16T12:41:39;16.10;30.50
83770;DHT22;73763;48.936;9.300;2024-01-16T12:44:06;15.90;31.60
83770;DHT22;73763;48.936;9.300;2024-01-16T12:46:31;16.50;29.90
83770;DHT22;73763;48.936;9.300;2024-01-16T12:49:01;17.20;29.80
83770;DHT22;73763;48.936;9.300;2024-01-16T12:51:27;16.10;30.10
83770;DHT22;73763;48.936;9.300;2024-01-16T12:53:53;15.00;32.20
83770;DHT22;73763;48.936;9.300;2024-01-16T12:56:19;13.90;33.50
83770;DHT22;73763;48.936;9.300;2024-01-16T12:58:45;13.10;33.80
83770;DHT22;73763;48.936;9.300;2024-01-16T13:01:27;12.30;35.60
83770;DHT22;73763;48.936;9.300;2024-01-16T13:03:53;11.40;37.20
83770;DHT22;73763;48.936;9.300;2024-01-16T13:06:20;11.00;37.60
83770;DHT22;73763;48.936;9.300;2024-01-16T13:08:46;11.00;38.80
83770;DHT22;73763;48.936;9.300;2024-01-16T13:11:12;11.50;39.30
83770;DHT22;73763;48.936;9.300;2024-01-16T13:13:38;12.30;38.80
83770;DHT22;73763;48.936;9.300;2024-01-16T13:16:05;13.60;37.20
83770;DHT22;73763;48.936;9.300;2024-01-16T13:18:31;14.90;33.90
83770;DHT22;73763;48.936;9.300;2024-01-16T13:20:57;15.70;31.90
83770;DHT22;73763;48.936;9.300;2024-01-16T13:23:24;16.40;31.00
83770;DHT22;73763;48.936;9.300;2024-01-16T13:25:50;16.00;30.50
83770;DHT22;73763;48.936;9.300;2024-01-16T13:28:18;14.90;30.80
83770;DHT22;73763;48.936;9.300;2024-01-16T13:30:45;14.10;33.40
83770;DHT22;73763;48.936;9.300;2024-01-16T13:33:11;12.90;33.70
83770;DHT22;73763;48.936;9.300;2024-01-16T13:35:54;12.10;35.80
83770;DHT22;73763;48.936;9.300;2024-01-16T13:38:21;11.60;37.80
83770;DHT22;73763;48.936;9.300;2024-01-16T13:40:46;10.90;38.70
83770;DHT22;73763;48.936;9.300;2024-01-16T13:43:12;10.70;40.00
83770;DHT22;73763;48.936;9.300;2024-01-16T13:45:38;10.50;39.80
83770;DHT22;73763;48.936;9.300;2024-01-16T13:48:05;11.00;40.70
83770;DHT22;73763;48.936;9.300;2024-01-16T13:50:32;12.10;38.80
83770;DHT22;73763;48.936;9.300;2024-01-16T13:52:57;13.60;37.00
83770;DHT22;73763;48.936;9.300;2024-01-16T13:55:23;14.90;35.10
83770;DHT22;73763;48.936;9.300;2024-01-16T13:57:48;15.50;33.10
83770;DHT22;73763;48.936;9.300;2024-01-16T14:00:14;15.30;32.30
83770;DHT22;73763;48.936;9.300;2024-01-16T14:02:41;16.00;32.90
83770;DHT22;73763;48.936;9.300;2024-01-16T14:05:13;16.30;31.80
83770;DHT22;73763;48.936;9.300;2024-01-16T14:07:39;15.90;32.20
83770;DHT22;73763;48.936;9.300;2024-01-16T14:10:07;15.70;31.80
83770;DHT22;73763;48.936;9.300;2024-01-16T14:12:33;15.50;32.60
83770;DHT22;73763;48.936;9.300;2024-01-16T14:14:58;15.60;33.00
83770;DHT22;73763;48.936;9.300;2024-01-16T14:17:24;15.40;32.00
83770;DHT22;73763;48.936;9.300;2024-01-16T14:19:49;15.10;32.10
83770;DHT22;73763;48.936;9.300;2024-01-16T14:22:15;15.20;33.20
83770;DHT22;73763;48.936;9.300;2024-01-16T14:24:40;15.20;32.30
83770;DHT22;73763;48.936;9.300;2024-01-16T14:27:06;14.90;33.90
83770;DHT22;73763;48.936;9.300;2024-01-16T14:29:34;14.30;34.00
83770;DHT22;73763;48.936;9.300;2024-01-16T14:32:02;14.30;35.10
83770;DHT22;73763;48.936;9.300;2024-01-16T14:34:27;14.00;34.30
83770;DHT22;73763;48.936;9.300;2024-01-16T14:36:53;14.00;34.70
83770;DHT22;73763;48.936;9.300;2024-01-16T14:39:18;13.70;34.60
83770;DHT22;73763;48.936;9.300;2024-01-16T14:41:44;13.30;34.40
83770;DHT22;73763;48.936;9.300;2024-01-16T14:44:10;13.20;35.10
83770;DHT22;73763;48.936;9.300;2024-01-16T14:46:36;13.00;35.50
83770;DHT22;73763;48.936;9.300;2024-01-16T14:49:01;12.70;36.30
83770;DHT22;73763;48.936;9.300;2024-01-16T14:51:27;12.80;35.60
83770;DHT22;73763;48.936;9.300;2024-01-16T14:53:52;12.50;35.80
83770;DHT22;73763;48.936;9.300;2024-01-16T14:56:18;12.30;36.20
83770;DHT22;73763;48.936;9.300;2024-01-16T14:58:44;11.80;36.80
83770;DHT22;73763;48.936;9.300;2024-01-16T15:01:09;11.90;37.40
83770;DHT22;73763;48.936;9.300;2024-01-16T15:03:35;11.80;38.20
83770;DHT22;73763;48.936;9.300;2024-01-16T15:06:00;11.40;37.60
83770;DHT22;73763;48.936;9.300;2024-01-16T15:08:26;11.30;38.10
83770;DHT22;73763;48.936;9.300;2024-01-16T15:10:51;10.80;39.20
83770;DHT22;73763;48.936;9.300;2024-01-16T15:13:17;10.30;40.60
83770;DHT22;73763;48.936;9.300;2024-01-16T15:15:42;9.20;40.10
83770;DHT22;73763;48.936;9.300;2024-01-16T15:18:08;8.30;42.70
83770;DHT22;73763;48.936;9.300;2024-01-16T15:20:33;7.50;45.60
83770;DHT22;73763;48.936;9.300;2024-01-16T15:22:59;6.50;47.30
83770;DHT22;73763;48.936;9.300;2024-01-16T15:25:25;5.80;49.20
83770;DHT22;73763;48.936;9.300;2024-01-16T15:27:51;5.20;50.70
83770;DHT22;73763;48.936;9.300;2024-01-16T15:30:17;4.60;52.40
83770;DHT22;73763;48.936;9.300;2024-01-16T15:32:42;4.10;54.00
83770;DHT22;73763;48.936;9.300;2024-01-16T15:35:08;3.60;54.70
83770;DHT22;73763;48.936;9.300;2024-01-16T15:37:34;3.20;56.90
83770;DHT22;73763;48.936;9.300;2024-01-16T15:39:59;2.80;58.30